Time;durP1;ratioP1;P1;durP2;ratioP2;P2;SDS_P1;SDS_P2;PMS_P1;PMS_P2;Temp;Humidity;BMP_temperature;BMP_pressure;BME280_temperature;BME280_humidity;BME280_pressure;Samples;Min_cycle;Max_cycle;Signal;HPM_P1;HPM_P2
2023/04/16 00:00:11;;;;;;;24.00;8.23;;;8.60;99.90;;;;;;5000187;28;20029;-77
2023/04/16 00:02:37;;;;;;;19.48;7.63;;;8.60;99.90;;;;;;5020154;28;20496;-77
2023/04/16 00:05:03;;;;;;;19.70;7.97;;;8.60;99.90;;;;;;5020801;28;20045;-76
2023/04/16 00:07:29;;;;;;;22.90;8.23;;;8.60;99.90;;;;;;5046681;28;20049;-77
2023/04/16 00:09:55;;;;;;;27.77;8.07;;;8.50;99.90;;;;;;5002894;28;20056;-77
2023/04/16 00:12:21;;;;;;;23.15;10.02;;;8.60;99.90;;;;;;5003614;28;20049;-77
2023/04/16 00:14:48;;;;;;;22.95;8.05;;;8.60;99.90;;;;;;5020195;28;20073;-76
2023/04/16 00:17:14;;;;;;;21.92;8.10;;;8.60;99.90;;;;;;5020427;28;20061;-76
2023/04/16 00:19:40;;;;;;;24.50;7.32;;;8.60;99.90;;;;;;5000681;28;20034;-77
2023/04/16 00:22:05;;;;;;;20.27;7.68;;;8.60;99.90;;;;;;5000510;28;20062;-77
2023/04/16 00:24:31;;;;;;;19.33;7.22;;;8.60;99.90;;;;;;5031587;28;20365;-77
2023/04/16 00:26:57;;;;;;;18.08;8.45;;;8.60;99.90;;;;;;5034275;28;20404;-77
2023/04/16 00:29:22;;;;;;;20.00;7.60;;;8.50;99.90;;;;;;5020752;28;20057;-77
2023/04/16 00:31:48;;;;;;;26.27;8.10;;;8.60;99.90;;;;;;5015699;28;20507;-77
2023/04/16 00:34:15;;;;;;;19.75;8.23;;;8.50;99.90;;;;;;5030172;28;20108;-77
2023/04/16 00:36:40;;;;;;;22.45;7.85;;;8.50;99.90;;;;;;5019257;28;20064;-76
2023/04/16 00:39:06;;;;;;;19.42;7.35;;;8.60;99.90;;;;;;5014389;28;20499;-77
2023/04/16 00:41:31;;;;;;;21.05;7.90;;;8.50;99.90;;;;;;5017253;28;20487;-77
2023/04/16 00:43:57;;;;;;;26.40;8.07;;;8.50;99.90;;;;;;5000949;28;20041;-77
2023/04/16 00:46:24;;;;;;;17.05;7.95;;;8.50;99.90;;;;;;5015112;28;20569;-76
2023/04/16 00:48:52;;;;;;;19.35;8.25;;;8.50;99.90;;;;;;5001471;28;20415;-77
2023/04/16 00:51:20;;;;;;;18.88;7.25;;;8.50;99.90;;;;;;5050397;28;20034;-77
2023/04/16 00:53:47;;;;;;;20.15;7.60;;;8.50;99.90;;;;;;5032652;28;20046;-76
2023/04/16 00:56:13;;;;;;;16.92;8.02;;;8.50;99.90;;;;;;5034877;28;20038;-77
2023/04/16 00:58:39;;;;;;;17.95;7.25;;;8.50;99.90;;;;;;5034710;28;20034;-77
2023/04/16 01:01:05;;;;;;;30.77;9.70;;;8.50;99.90;;;;;;4999265;28;20049;-76
2023/04/16 01:03:38;;;;;;;24.50;8.55;;;8.50;99.90;;;;;;5037981;28;20045;-77
2023/04/16 01:06:05;;;;;;;23.77;7.80;;;8.50;99.90;;;;;;5042135;28;20069;-77
2023/04/16 01:08:30;;;;;;;23.10;7.85;;;8.50;99.90;;;;;;5013311;28;20042;-76
2023/04/16 01:10:56;;;;;;;26.45;8.45;;;8.50;99.90;;;;;;4999880;28;20054;-77
2023/04/16 01:13:22;;;;;;;18.02;7.85;;;8.50;99.90;;;;;;5034329;28;20296;-77
2023/04/16 01:15:47;;;;;;;20.98;8.07;;;8.40;99.90;;;;;;5018899;28;20077;-77
2023/04/16 01:18:18;;;;;;;20.25;7.97;;;8.50;99.90;;;;;;5018483;28;20137;-77
2023/04/16 01:20:45;;;;;;;21.92;7.07;;;8.50;99.90;;;;;;5014045;28;20069;-77
2023/04/16 01:23:10;;;;;;;23.33;8.15;;;8.50;99.90;;;;;;4989214;28;20034;-77
2023/04/16 01:25:36;;;;;;;23.20;8.05;;;8.50;99.90;;;;;;5016322;28;20038;-77
2023/04/16 01:28:02;;;;;;;26.13;8.77;;;8.50;99.90;;;;;;5000966;28;20041;-77
2023/04/16 01:30:28;;;;;;;20.60;6.63;;;8.50;99.90;;;;;;5000895;28;20479;-77
2023/04/16 01:32:53;;;;;;;26.15;8.32;;;8.40;99.90;;;;;;5031508;28;20046;-76
2023/04/16 01:35:19;;;;;;;19.48;8.40;;;8.40;99.90;;;;;;5014997;28;20040;-77
2023/04/16 01:37:45;;;;;;;23.80;8.90;;;8.40;99.90;;;;;;5016273;28;20284;-76
2023/04/16 01:40:11;;;;;;;23.33;8.80;;;8.40;99.90;;;;;;5020204;28;20043;-77
2023/04/16 01:42:37;;;;;;;22.90;7.25;;;8.40;99.90;;;;;;5031838;28;20040;-76
2023/04/16 01:45:04;;;;;;;23.88;7.93;;;8.40;99.90;;;;;;5002123;28;20045;-76
2023/04/16 01:47:29;;;;;;;22.98;7.40;;;8.40;99.90;;;;;;5001795;28;20037;-77
2023/04/16 01:49:55;;;;;;;21.58;8.70;;;8.40;99.90;;;;;;5002195;28;20095;-76
2023/04/16 01:52:21;;;;;;;23.52;7.72;;;8.30;99.90;;;;;;5000488;28;20042;-76
2023/04/16 01:54:47;;;;;;;22.00;7.40;;;8.30;99.90;;;;;;5029955;28;20045;-76
2023/04/16 01:57:13;;;;;;;21.67;8.52;;;8.30;99.90;;;;;;5023254;28;20062;-77
2023/04/16 01:59:38;;;;;;;24.00;8.75;;;8.30;99.90;;;;;;5004203;28;20073;-76
2023/04/16 02:02:11;;;;;;;18.17;7.45;;;8.30;99.90;;;;;;5002034;28;20033;-77
2023/04/16 02:04:42;;;;;;;21.30;9.40;;;8.40;99.90;;;;;;5003432;28;20034;-77
2023/04/16 02:07:08;;;;;;;26.55;7.72;;;8.30;99.90;;;;;;5019285;28;20116;-77
2023/04/16 02:09:38;;;;;;;21.60;7.65;;;8.30;99.90;;;;;;5002771;28;20089;-76
2023/04/16 02:12:04;;;;;;;19.10;8.32;;;8.30;99.90;;;;;;5033686;28;20407;-76
2023/04/16 02:14:33;;;;;;;26.60;9.68;;;8.30;99.90;;;;;;5005941;28;20037;-76
2023/04/16 02:16:59;;;;;;;22.17;8.32;;;8.30;99.90;;;;;;5004910;28;20070;-77
2023/04/16 02:19:25;;;;;;;21.33;7.47;;;8.30;99.90;;;;;;5019414;28;20536;-77
2023/04/16 02:21:51;;;;;;;19.08;7.57;;;8.30;99.90;;;;;;4999853;28;20507;-76
2023/04/16 02:24:17;;;;;;;23.58;8.38;;;8.30;99.90;;;;;;5021667;28;20070;-76
2023/04/16 02:26:44;;;;;;;23.00;8.27;;;8.20;99.90;;;;;;5018119;28;20043;-77
2023/04/16 02:29:09;;;;;;;30.65;9.40;;;8.30;99.90;;;;;;5005976;28;20050;-77
2023/04/16 02:31:35;;;;;;;25.88;8.60;;;8.30;99.90;;;;;;5036423;28;20045;-77
2023/04/16 02:34:02;;;;;;;26.08;8.75;;;8.30;99.90;;;;;;5033164;28;20088;-77
2023/04/16 02:36:27;;;;;;;26.85;9.30;;;8.20;99.90;;;;;;5030307;28;20030;-77
2023/04/16 02:38:53;;;;;;;22.48;9.18;;;8.20;99.90;;;;;;5033572;28;20057;-77
2023/04/16 02:41:18;;;;;;;26.35;10.27;;;8.20;99.90;;;;;;5017030;28;20038;-76
2023/04/16 02:43:44;;;;;;;27.15;9.38;;;8.20;99.90;;;;;;5021131;28;20139;-76
2023/04/16 02:46:10;;;;;;;26.23;8.70;;;8.20;99.90;;;;;;5005255;28;20061;-77
2023/04/16 02:48:36;;;;;;;26.58;9.32;;;8.20;99.90;;;;;;5003854;28;20029;-76
2023/04/16 02:51:01;;;;;;;26.08;8.80;;;8.20;99.90;;;;;;5001346;28;20414;-76
2023/04/16 02:53:27;;;;;;;20.17;8.73;;;8.20;99.90;;;;;;5036346;28;20053;-76
2023/04/16 02:55:53;;;;;;;23.73;7.47;;;8.20;99.90;;;;;;5004633;28;20042;-77
2023/04/16 02:58:20;;;;;;;23.25;8.82;;;8.20;99.90;;;;;;5036025;28;20038;-76
2023/04/16 03:00:46;;;;;;;24.33;8.35;;;8.10;99.90;;;;;;5022051;28;20400;-76
2023/04/16 03:03:12;;;;;;;20.67;8.20;;;8.10;99.90;;;;;;5020546;28;20033;-77
2023/04/16 03:05:38;;;;;;;22.77;8.23;;;8.10;99.90;;;;;;5000805;28;20380;-76
2023/04/16 03:08:04;;;;;;;21.20;8.32;;;8.10;99.90;;;;;;5019643;28;20045;-76
2023/04/16 03:10:29;;;;;;;24.42;9.15;;;8.10;99.90;;;;;;5001286;28;20048;-76
2023/04/16 03:12:55;;;;;;;23.80;9.05;;;8.10;99.90;;;;;;5006094;28;20069;-77
2023/04/16 03:15:21;;;;;;;22.55;9.73;;;8.10;99.90;;;;;;5004671;28;20046;-77
2023/04/16 03:17:46;;;;;;;23.23;8.32;;;8.10;99.90;;;;;;5021086;28;20030;-76
2023/04/16 03:20:13;;;;;;;27.13;9.52;;;8.10;99.90;;;;;;5033620;28;20169;-77
2023/04/16 03:22:39;;;;;;;32.33;8.93;;;8.10;99.90;;;;;;4998737;28;20030;-77
2023/04/16 03:25:06;;;;;;;28.10;8.75;;;8.10;99.90;;;;;;5018621;28;20077;-76
2023/04/16 03:27:32;;;;;;;25.60;9.68;;;8.10;99.90;;;;;;5021816;28;20097;-76
2023/04/16 03:29:57;;;;;;;26.10;9.07;;;8.10;99.90;;;;;;5004667;28;20057;-76
2023/04/16 03:32:23;;;;;;;20.15;8.32;;;8.20;99.90;;;;;;5036260;28;20194;-77
2023/04/16 03:34:49;;;;;;;25.08;9.77;;;8.20;99.90;;;;;;5002486;28;20136;-77
2023/04/16 03:37:15;;;;;;;22.58;8.00;;;8.20;99.90;;;;;;5022333;28;20034;-76
2023/04/16 03:39:40;;;;;;;22.38;9.25;;;8.20;99.90;;;;;;5002982;28;20480;-76
2023/04/16 03:42:06;;;;;;;25.13;9.57;;;8.10;99.90;;;;;;5005066;28;20030;-76
2023/04/16 03:44:31;;;;;;;21.08;8.13;;;8.20;99.90;;;;;;5002439;28;20479;-76
2023/04/16 03:46:57;;;;;;;19.13;8.52;;;8.10;99.90;;;;;;5036562;28;20400;-77
2023/04/16 03:49:23;;;;;;;25.20;8.60;;;8.10;99.90;;;;;;5015358;28;20054;-77
2023/04/16 03:51:48;;;;;;;23.38;8.35;;;8.10;99.90;;;;;;5001126;28;20037;-76
2023/04/16 03:54:14;;;;;;;20.73;7.65;;;8.20;99.90;;;;;;5039272;28;20049;-77
2023/04/16 03:56:40;;;;;;;23.58;8.15;;;8.20;99.90;;;;;;4989389;28;20077;-76
2023/04/16 03:59:06;;;;;;;24.63;8.55;;;8.10;99.90;;;;;;5032637;28;20037;-77
2023/04/16 04:01:32;;;;;;;19.88;8.23;;;8.10;99.90;;;;;;5025220;28;20038;-76
2023/04/16 04:03:57;;;;;;;19.58;7.22;;;8.10;99.90;;;;;;5042158;28;20140;-76
2023/04/16 04:06:23;;;;;;;22.63;8.10;;;8.10;99.90;;;;;;5007061;28;20038;-77
2023/04/16 04:08:49;;;;;;;20.92;7.80;;;8.10;99.90;;;;;;5021526;28;20060;-76
2023/04/16 04:11:15;;;;;;;17.45;7.88;;;8.20;99.90;;;;;;5030620;28;20061;-77
2023/04/16 04:13:40;;;;;;;27.90;8.63;;;8.10;99.90;;;;;;5002184;28;20565;-77
2023/04/16 04:16:06;;;;;;;22.42;8.93;;;8.10;99.90;;;;;;5048424;28;20038;-76
2023/04/16 04:18:32;;;;;;;20.58;8.05;;;8.10;99.90;;;;;;5001031;28;20034;-76
2023/04/16 04:20:57;;;;;;;17.67;7.93;;;8.10;99.90;;;;;;5020393;28;20030;-76
2023/04/16 04:23:23;;;;;;;24.70;9.05;;;8.10;99.90;;;;;;5001462;28;20100;-77
2023/04/16 04:25:49;;;;;;;25.42;9.13;;;8.10;99.90;;;;;;5018833;28;20038;-76
2023/04/16 04:28:15;;;;;;;21.30;8.70;;;8.20;99.90;;;;;;5052342;28;20076;-77
2023/04/16 04:30:40;;;;;;;25.33;9.38;;;8.10;99.90;;;;;;5019596;28;20141;-77
2023/04/16 04:33:06;;;;;;;21.75;8.48;;;8.10;99.90;;;;;;5000095;28;20050;-76
2023/04/16 04:35:32;;;;;;;26.88;8.82;;;8.10;99.90;;;;;;5033049;28;20527;-77
2023/04/16 04:37:57;;;;;;;25.13;8.15;;;8.10;99.90;;;;;;5034992;28;20044;-76
2023/04/16 04:40:23;;;;;;;23.95;9.13;;;8.20;99.90;;;;;;4999855;28;20503;-77
2023/04/16 04:42:49;;;;;;;22.08;8.80;;;8.20;99.90;;;;;;5032964;28;20038;-77
2023/04/16 04:45:14;;;;;;;22.80;8.23;;;8.10;99.90;;;;;;5050865;28;20565;-77
2023/04/16 04:47:40;;;;;;;24.35;7.95;;;8.20;99.90;;;;;;5018748;28;20038;-77
2023/04/16 04:50:06;;;;;;;19.20;7.80;;;8.20;99.90;;;;;;5001959;28;20049;-77
2023/04/16 04:52:32;;;;;;;26.33;8.68;;;8.20;99.90;;;;;;5003715;28;20060;-76
2023/04/16 04:54:57;;;;;;;24.30;9.95;;;8.10;99.90;;;;;;5020803;28;20407;-76
2023/04/16 04:57:23;;;;;;;20.80;8.18;;;8.20;99.90;;;;;;5001537;28;20064;-77
2023/04/16 04:59:49;;;;;;;21.52;7.97;;;8.20;99.90;;;;;;5001139;28;20176;-77
2023/04/16 05:02:14;;;;;;;22.40;7.93;;;8.20;99.90;;;;;;5008133;28;20042;-77
2023/04/16 05:04:40;;;;;;;22.17;7.93;;;8.20;99.90;;;;;;5003347;28;20048;-77
2023/04/16 05:07:06;;;;;;;19.95;7.95;;;8.20;99.90;;;;;;5028488;28;20034;-77
2023/04/16 05:09:31;;;;;;;24.10;8.00;;;8.20;99.90;;;;;;5001092;28;20060;-77
2023/04/16 05:11:57;;;;;;;22.33;7.28;;;8.20;99.90;;;;;;5017643;28;20524;-77
2023/04/16 05:14:23;;;;;;;17.60;7.00;;;8.20;99.90;;;;;;5024273;28;20527;-77
2023/04/16 05:16:48;;;;;;;19.30;7.47;;;8.20;99.90;;;;;;5028720;28;20105;-76
2023/04/16 05:19:15;;;;;;;17.60;8.40;;;8.20;99.90;;;;;;5019778;28;20164;-77
2023/04/16 05:21:41;;;;;;;23.77;7.22;;;8.20;99.90;;;;;;5032141;28;20041;-76
2023/04/16 05:24:06;;;;;;;23.75;8.63;;;8.10;99.90;;;;;;5002927;28;20050;-77
2023/04/16 05:26:32;;;;;;;23.38;7.95;;;8.10;99.90;;;;;;5018442;28;20041;-77
2023/04/16 05:28:58;;;;;;;21.83;8.10;;;8.10;99.90;;;;;;5032187;28;20500;-76
2023/04/16 05:31:23;;;;;;;26.88;8.38;;;8.10;99.90;;;;;;5021682;28;20048;-77
2023/04/16 05:33:49;;;;;;;21.15;7.80;;;8.10;99.90;;;;;;5036458;28;20100;-77
2023/04/16 05:36:15;;;;;;;22.27;8.35;;;8.20;99.90;;;;;;5023658;28;20040;-76
2023/04/16 05:38:40;;;;;;;18.17;7.63;;;8.20;99.90;;;;;;5006237;28;20034;-77
2023/04/16 05:41:06;;;;;;;21.65;8.32;;;8.20;99.90;;;;;;5020231;28;20030;-77
2023/04/16 05:43:31;;;;;;;19.10;8.05;;;8.20;99.90;;;;;;5004364;28;20040;-77
2023/04/16 05:45:57;;;;;;;17.27;7.13;;;8.20;99.90;;;;;;5004419;28;20034;-77
2023/04/16 05:48:23;;;;;;;26.05;7.70;;;8.10;99.90;;;;;;5006292;28;20056;-77
2023/04/16 05:50:49;;;;;;;17.80;7.13;;;8.10;99.90;;;;;;5021738;28;20033;-77
2023/04/16 05:53:17;;;;;;;24.52;7.53;;;8.10;99.90;;;;;;5004200;28;20170;-77
2023/04/16 05:55:43;;;;;;;24.13;7.88;;;8.10;99.90;;;;;;5036820;28;20492;-77
2023/04/16 05:58:09;;;;;;;23.60;7.00;;;8.10;99.90;;;;;;5005725;28;20040;-77
2023/04/16 06:00:34;;;;;;;18.40;6.85;;;8.10;99.90;;;;;;5039696;28;20511;-77
2023/04/16 06:03:01;;;;;;;20.90;7.38;;;8.20;99.90;;;;;;4995981;28;20144;-76
2023/04/16 06:05:27;;;;;;;19.90;7.75;;;8.20;99.90;;;;;;4992942;28;20041;-77
2023/04/16 06:07:52;;;;;;;21.50;8.60;;;8.20;99.90;;;;;;5016656;28;20515;-76
2023/04/16 06:10:18;;;;;;;25.15;8.50;;;8.20;99.90;;;;;;5005986;28;20530;-76
2023/04/16 06:12:43;;;;;;;22.63;7.88;;;8.20;99.90;;;;;;5021566;28;20107;-76
2023/04/16 06:15:10;;;;;;;22.20;8.30;;;8.30;99.90;;;;;;5005553;28;20041;-77
2023/04/16 06:17:35;;;;;;;24.70;8.77;;;8.30;99.90;;;;;;5026322;28;20042;-75
2023/04/16 06:20:01;;;;;;;20.90;7.50;;;8.30;99.90;;;;;;5042308;28;20563;-75
2023/04/16 06:22:26;;;;;;;26.45;8.35;;;8.30;99.90;;;;;;5031398;28;20447;-76
2023/04/16 06:24:52;;;;;;;22.13;7.32;;;8.40;99.90;;;;;;5005412;28;20073;-77
2023/04/16 06:27:18;;;;;;;20.65;7.93;;;8.30;99.90;;;;;;5005490;28;20479;-77
2023/04/16 06:29:44;;;;;;;19.58;7.32;;;8.40;99.90;;;;;;5001363;28;21251;-77
2023/04/16 06:32:09;;;;;;;23.38;7.68;;;8.40;99.90;;;;;;4990367;28;20488;-77
2023/04/16 06:34:37;;;;;;;19.92;8.18;;;8.50;99.90;;;;;;5004121;28;20566;-77
2023/04/16 06:37:03;;;;;;;19.52;8.02;;;8.40;99.90;;;;;;4999602;28;20080;-77
2023/04/16 06:39:29;;;;;;;22.70;8.25;;;8.50;99.90;;;;;;5054994;28;20037;-77
2023/04/16 06:41:54;;;;;;;19.25;8.32;;;8.40;99.90;;;;;;5025750;28;20038;-76
2023/04/16 06:44:20;;;;;;;19.33;7.50;;;8.50;99.90;;;;;;4984872;28;20045;-77
2023/04/16 06:46:46;;;;;;;18.33;7.07;;;8.50;99.90;;;;;;5018424;28;20068;-76
2023/04/16 06:49:11;;;;;;;21.05;7.90;;;8.50;99.90;;;;;;5033928;28;20395;-76
2023/04/16 06:51:37;;;;;;;22.70;7.78;;;8.50;99.90;;;;;;4999550;28;20194;-77
2023/04/16 06:54:03;;;;;;;18.85;8.05;;;8.50;99.90;;;;;;5012901;28;20039;-76
2023/04/16 06:56:28;;;;;;;23.05;8.65;;;8.50;99.90;;;;;;5002293;28;20052;-76
2023/04/16 06:58:56;;;;;;;18.35;7.25;;;8.50;99.90;;;;;;5025635;28;20044;-76
2023/04/16 07:01:22;;;;;;;24.77;8.02;;;8.50;99.90;;;;;;5049304;28;20042;-77
2023/04/16 07:03:47;;;;;;;21.00;7.22;;;8.50;99.90;;;;;;5031590;28;20044;-76
2023/04/16 07:06:13;;;;;;;24.73;7.35;;;8.40;99.90;;;;;;5012988;28;20049;-76
2023/04/16 07:08:39;;;;;;;20.13;7.82;;;8.40;99.90;;;;;;5031528;28;20045;-76
2023/04/16 07:11:04;;;;;;;24.63;7.95;;;8.50;99.90;;;;;;5029639;28;20054;-76
2023/04/16 07:13:30;;;;;;;19.10;6.95;;;8.50;99.90;;;;;;5018830;28;20033;-76
2023/04/16 07:15:56;;;;;;;17.58;6.53;;;8.50;99.90;;;;;;4997493;28;20046;-76
2023/04/16 07:18:21;;;;;;;15.65;7.28;;;8.40;99.90;;;;;;5031677;28;20034;-77
2023/04/16 07:20:47;;;;;;;17.00;6.50;;;8.50;99.90;;;;;;5018821;28;20438;-76
2023/04/16 07:23:13;;;;;;;14.98;6.95;;;8.50;99.90;;;;;;4996252;28;20049;-76
2023/04/16 07:25:39;;;;;;;21.30;7.75;;;8.50;99.90;;;;;;5016587;28;20037;-76
2023/04/16 07:28:04;;;;;;;18.52;7.15;;;8.50;99.90;;;;;;4997436;28;20589;-76
2023/04/16 07:30:33;;;;;;;16.13;6.85;;;8.50;99.90;;;;;;5001233;28;20044;-76
2023/04/16 07:33:02;;;;;;;18.10;7.05;;;8.50;99.90;;;;;;5016719;28;20045;-75
2023/04/16 07:35:28;;;;;;;24.20;7.18;;;8.50;99.90;;;;;;4995096;28;20046;-77
2023/04/16 07:37:54;;;;;;;16.42;7.28;;;8.50;99.90;;;;;;5000016;28;20038;-76
2023/04/16 07:40:20;;;;;;;20.85;6.65;;;8.50;99.90;;;;;;5014877;28;20038;-77
2023/04/16 07:42:45;;;;;;;14.35;6.82;;;8.60;99.90;;;;;;5002290;28;20426;-77
2023/04/16 07:45:11;;;;;;;20.33;7.75;;;8.50;99.90;;;;;;5032396;28;20325;-77
2023/04/16 07:47:37;;;;;;;21.52;7.45;;;8.60;99.90;;;;;;5017706;28;20049;-76
2023/04/16 07:50:02;;;;;;;19.50;7.10;;;8.60;99.90;;;;;;4996596;28;20042;-76
2023/04/16 07:52:28;;;;;;;20.95;7.53;;;8.60;99.90;;;;;;4996168;28;20041;-76
2023/04/16 07:54:54;;;;;;;19.00;6.45;;;8.60;99.90;;;;;;4997051;28;20137;-76
2023/04/16 07:57:20;;;;;;;22.70;7.45;;;8.70;99.90;;;;;;5029546;28;20495;-76
2023/04/16 07:59:45;;;;;;;20.70;6.72;;;8.70;99.90;;;;;;5032354;28;20545;-77
2023/04/16 08:02:14;;;;;;;12.65;5.80;;;8.80;99.90;;;;;;5015575;28;20041;-77
2023/04/16 08:04:43;;;;;;;15.32;6.82;;;8.80;99.90;;;;;;5011250;28;20566;-77
2023/04/16 08:07:09;;;;;;;19.35;7.63;;;8.90;99.90;;;;;;5027427;28;20037;-76
2023/04/16 08:09:35;;;;;;;20.92;7.65;;;8.90;99.90;;;;;;5048882;28;20099;-77
2023/04/16 08:12:01;;;;;;;18.30;7.07;;;8.90;99.90;;;;;;5017111;28;20557;-77
2023/04/16 08:14:27;;;;;;;17.52;6.75;;;8.90;99.90;;;;;;5000734;28;20558;-77
2023/04/16 08:16:52;;;;;;;24.58;8.02;;;9.00;99.90;;;;;;5011747;28;20053;-77
2023/04/16 08:19:18;;;;;;;18.02;7.10;;;9.00;99.90;;;;;;5045165;28;20036;-77
2023/04/16 08:21:44;;;;;;;16.48;7.10;;;9.10;99.90;;;;;;5028731;28;20030;-76
2023/04/16 08:24:10;;;;;;;21.88;7.18;;;9.10;99.90;;;;;;4991829;28;20403;-76
2023/04/16 08:26:36;;;;;;;17.45;7.28;;;9.10;99.90;;;;;;5025266;28;20573;-76
2023/04/16 08:29:01;;;;;;;14.10;6.30;;;9.20;99.90;;;;;;5010150;28;20042;-76
2023/04/16 08:31:27;;;;;;;18.15;6.47;;;9.20;99.90;;;;;;5011213;28;20133;-77
2023/04/16 08:33:53;;;;;;;15.18;6.88;;;9.30;99.90;;;;;;5012096;28;20040;-76
2023/04/16 08:36:18;;;;;;;15.05;5.93;;;9.30;99.90;;;;;;5020408;28;20038;-76
2023/04/16 08:38:44;;;;;;;16.42;6.72;;;9.40;99.90;;;;;;5011418;28;20029;-76
2023/04/16 08:41:12;;;;;;;15.55;6.85;;;9.40;99.90;;;;;;4997800;28;20377;-76
2023/04/16 08:43:41;;;;;;;20.50;6.53;;;9.50;99.90;;;;;;4994177;28;20276;-76
2023/04/16 08:46:07;;;;;;;21.05;7.35;;;9.50;99.90;;;;;;5027637;28;20061;-77
2023/04/16 08:48:34;;;;;;;19.73;7.53;;;9.60;99.90;;;;;;5024277;28;20046;-76
2023/04/16 08:51:01;;;;;;;15.57;6.15;;;9.70;99.90;;;;;;4999066;28;20022;-76
2023/04/16 08:53:58;;;;;;;18.95;6.55;;;9.70;99.90;;;;;;4997996;28;20491;-77
2023/04/16 08:56:25;;;;;;;15.40;6.30;;;9.80;99.90;;;;;;5022564;28;20033;-77
2023/04/16 08:58:53;;;;;;;13.63;6.13;;;9.90;99.90;;;;;;4995787;28;20038;-77
2023/04/16 09:01:20;;;;;;;15.93;6.50;;;10.00;99.90;;;;;;4995257;28;20056;-76
2023/04/16 09:03:48;;;;;;;14.82;5.80;;;10.00;99.90;;;;;;5014152;28;20029;-76
2023/04/16 09:06:15;;;;;;;15.23;6.63;;;10.00;99.90;;;;;;4996544;28;20038;-76
2023/04/16 09:08:44;;;;;;;21.05;5.88;;;10.10;99.90;;;;;;5028617;28;20118;-76
2023/04/16 09:11:12;;;;;;;14.73;6.57;;;10.20;99.90;;;;;;4998765;28;20507;-77
2023/04/16 09:13:37;;;;;;;21.23;7.47;;;10.20;99.90;;;;;;5031775;28;20930;-77
2023/04/16 09:16:04;;;;;;;19.67;6.78;;;10.30;99.90;;;;;;4993210;28;20121;-76
2023/04/16 09:18:30;;;;;;;17.80;6.40;;;10.40;99.90;;;;;;5013239;28;20128;-77
2023/04/16 09:20:56;;;;;;;15.70;5.97;;;10.50;99.90;;;;;;4996287;28;20061;-76
2023/04/16 09:23:22;;;;;;;16.20;7.22;;;10.50;99.90;;;;;;5001555;28;20115;-76
2023/04/16 09:25:47;;;;;;;16.05;6.63;;;10.50;99.90;;;;;;5002270;28;20531;-76
2023/04/16 09:28:44;;;;;;;14.98;6.18;;;10.50;99.90;;;;;;5000881;28;20045;-76
2023/04/16 09:31:17;;;;;;;16.70;6.53;;;10.50;99.90;;;;;;5027583;28;20087;-76
2023/04/16 09:34:01;;;;;;;14.93;6.28;;;10.60;99.90;;;;;;5030861;28;20034;-76
2023/04/16 09:36:27;;;;;;;18.55;6.50;;;10.60;99.90;;;;;;4988437;28;20700;-76
2023/04/16 09:38:53;;;;;;;16.52;6.10;;;10.70;99.90;;;;;;4985470;28;20091;-76
2023/04/16 09:41:23;;;;;;;19.42;7.07;;;10.70;99.90;;;;;;5014174;28;20038;-76
2023/04/16 09:43:56;;;;;;;20.55;6.60;;;10.70;99.90;;;;;;4999899;28;20508;-76
2023/04/16 09:46:24;;;;;;;19.67;6.35;;;10.80;99.90;;;;;;5032113;28;20038;-76
2023/04/16 09:48:50;;;;;;;20.67;7.25;;;10.80;99.90;;;;;;4984076;28;20116;-76
2023/04/16 09:51:15;;;;;;;16.63;5.78;;;10.80;99.90;;;;;;4997774;28;20041;-75
2023/04/16 09:53:41;;;;;;;11.90;6.20;;;10.90;99.90;;;;;;4995483;28;20181;-76
2023/04/16 09:56:07;;;;;;;15.93;6.18;;;11.00;99.90;;;;;;5026730;28;20084;-76
2023/04/16 09:58:41;;;;;;;18.83;6.18;;;11.00;99.90;;;;;;5000584;28;20030;-76
2023/04/16 10:01:13;;;;;;;18.27;6.57;;;11.10;99.90;;;;;;5015094;28;20046;-75
2023/04/16 10:03:39;;;;;;;17.02;5.82;;;11.10;99.90;;;;;;4995219;28;20045;-75
2023/04/16 10:06:13;;;;;;;13.65;6.47;;;11.10;99.90;;;;;;4994356;28;20127;-75
2023/04/16 10:08:49;;;;;;;15.80;6.30;;;11.20;99.90;;;;;;5031296;28;20243;-75
2023/04/16 10:11:16;;;;;;;10.60;5.65;;;11.30;99.90;;;;;;5016482;28;20053;-75
2023/04/16 10:13:42;;;;;;;12.75;6.40;;;11.30;99.90;;;;;;4996604;28;20515;-76
2023/04/16 10:16:08;;;;;;;15.55;6.25;;;11.40;99.90;;;;;;5012365;28;20254;-75
2023/04/16 10:18:37;;;;;;;15.73;6.78;;;11.40;99.90;;;;;;4995575;28;20414;-75
2023/04/16 10:21:03;;;;;;;12.95;5.68;;;11.40;99.90;;;;;;5009601;28;20034;-75
2023/04/16 10:23:29;;;;;;;17.35;6.57;;;11.50;99.90;;;;;;5047658;28;20078;-75
2023/04/16 10:25:55;;;;;;;16.30;6.80;;;11.60;99.90;;;;;;5050540;28;20065;-76
2023/04/16 10:28:21;;;;;;;14.18;6.25;;;11.60;99.90;;;;;;4999538;28;20313;-75
2023/04/16 10:30:52;;;;;;;11.88;6.28;;;11.60;99.90;;;;;;5009625;28;20043;-75
2023/04/16 10:33:22;;;;;;;15.23;6.55;;;11.60;99.90;;;;;;5032788;28;20042;-76
2023/04/16 10:36:05;;;;;;;14.77;6.50;;;11.70;99.90;;;;;;5025028;28;20045;-76
2023/04/16 10:38:31;;;;;;;10.10;5.55;;;11.80;99.90;;;;;;5033476;28;20095;-76
2023/04/16 10:41:04;;;;;;;22.05;6.05;;;11.80;99.90;;;;;;5000648;28;20033;-75
2023/04/16 10:43:32;;;;;;;12.23;5.93;;;11.80;99.90;;;;;;5028548;28;20787;-75
2023/04/16 10:46:23;;;;;;;12.95;6.05;;;11.80;99.90;;;;;;5015337;28;20506;-75
2023/04/16 10:48:52;;;;;;;14.43;5.90;;;11.90;99.90;;;;;;5028107;28;20041;-75
2023/04/16 10:51:34;;;;;;;12.95;6.60;;;11.90;99.90;;;;;;4989518;28;20103;-75
2023/04/16 10:54:13;;;;;;;17.70;6.20;;;12.00;99.90;;;;;;5031864;28;20135;-75
2023/04/16 10:56:39;;;;;;;14.10;6.50;;;12.10;99.90;;;;;;5051254;28;20173;-75
2023/04/16 10:59:10;;;;;;;14.35;6.63;;;12.10;99.90;;;;;;5003180;28;20041;-75
2023/04/16 11:01:39;;;;;;;10.18;5.55;;;12.10;99.90;;;;;;5000319;28;20467;-75
2023/04/16 11:04:20;;;;;;;11.18;5.30;;;12.20;99.90;;;;;;5028765;28;20679;-76
2023/04/16 11:07:17;;;;;;;14.10;5.72;;;12.20;99.90;;;;;;5025823;28;20044;-75
2023/04/16 11:09:58;;;;;;;13.50;5.47;;;12.20;99.90;;;;;;5031647;28;20084;-75
2023/04/16 11:12:43;;;;;;;13.20;6.28;;;12.30;99.90;;;;;;5047607;28;20123;-75
2023/04/16 11:15:11;;;;;;;10.32;5.60;;;12.40;99.90;;;;;;4997472;28;20046;-75
2023/04/16 11:17:46;;;;;;;15.77;6.20;;;12.50;99.90;;;;;;5028649;28;20040;-75
2023/04/16 11:20:24;;;;;;;13.23;6.07;;;12.50;99.90;;;;;;4988154;28;20133;-75
2023/04/16 11:22:52;;;;;;;11.60;5.78;;;12.50;99.90;;;;;;5030050;28;20152;-76
2023/04/16 11:25:22;;;;;;;14.70;6.53;;;12.60;99.90;;;;;;5000211;28;20539;-76
2023/04/16 11:27:48;;;;;;;14.30;6.22;;;12.60;99.90;;;;;;4999847;28;20038;-76
2023/04/16 11:30:14;;;;;;;12.10;6.00;;;12.60;99.90;;;;;;5035528;28;20064;-75
2023/04/16 11:32:40;;;;;;;11.23;5.65;;;12.60;99.90;;;;;;5031814;28;20487;-76
2023/04/16 11:35:14;;;;;;;13.20;5.63;;;12.60;99.90;;;;;;4993461;28;20042;-75
2023/04/16 11:37:40;;;;;;;17.20;6.63;;;12.60;99.90;;;;;;5017614;28;20157;-76
2023/04/16 11:40:08;;;;;;;15.05;5.63;;;12.60;99.90;;;;;;5004663;28;20034;-76
2023/04/16 11:42:36;;;;;;;14.15;6.28;;;12.70;99.90;;;;;;5008589;28;20065;-76
2023/04/16 11:45:02;;;;;;;13.93;6.50;;;12.80;99.90;;;;;;5007707;28;20046;-76
2023/04/16 11:47:30;;;;;;;11.35;5.07;;;12.70;99.90;;;;;;5008409;28;20045;-76
2023/04/16 11:49:56;;;;;;;13.40;6.05;;;12.70;99.90;;;;;;5025281;28;20119;-76
2023/04/16 11:52:30;;;;;;;12.63;5.85;;;12.80;99.90;;;;;;4991371;28;20038;-76
2023/04/16 11:54:57;;;;;;;12.65;5.97;;;12.80;99.90;;;;;;4988228;28;20418;-76
2023/04/16 11:57:31;;;;;;;13.60;6.10;;;12.80;99.90;;;;;;5036606;28;20038;-76
2023/04/16 11:59:58;;;;;;;11.45;5.32;;;12.80;99.90;;;;;;5036175;28;20044;-76
2023/04/16 12:02:43;;;;;;;12.95;5.80;;;12.80;99.90;;;;;;4991418;28;20083;-75
2023/04/16 12:05:32;;;;;;;12.10;6.38;;;12.80;99.90;;;;;;5046025;28;21330;-76
2023/04/16 12:07:59;;;;;;;11.00;5.57;;;12.80;99.90;;;;;;5044737;28;20045;-75
2023/04/16 12:10:26;;;;;;;17.27;5.70;;;12.90;99.90;;;;;;5027626;28;20444;-76
2023/04/16 12:12:51;;;;;;;12.35;5.90;;;12.90;99.90;;;;;;5044208;28;20061;-76
2023/04/16 12:15:19;;;;;;;14.13;5.53;;;12.90;99.90;;;;;;5044576;28;20475;-76
2023/04/16 12:17:45;;;;;;;15.30;6.22;;;13.00;99.90;;;;;;5022755;28;20033;-76
2023/04/16 12:20:11;;;;;;;17.00;5.55;;;13.00;99.90;;;;;;5042211;28;20438;-76
2023/04/16 12:22:45;;;;;;;11.85;6.18;;;13.10;99.90;;;;;;4991897;28;20030;-76
2023/04/16 12:25:17;;;;;;;12.88;5.18;;;13.10;99.90;;;;;;4989262;28;20046;-74
2023/04/16 12:27:49;;;;;;;13.85;5.63;;;13.10;99.90;;;;;;5003863;28;20104;-75
2023/04/16 12:30:16;;;;;;;14.13;5.00;;;13.10;99.90;;;;;;5007081;28;20690;-74
2023/04/16 12:32:44;;;;;;;12.70;5.97;;;13.10;99.90;;;;;;5007808;28;20038;-76
2023/04/16 12:35:10;;;;;;;11.30;5.75;;;13.10;99.90;;;;;;5007840;28;20045;-76
2023/04/16 12:37:36;;;;;;;14.05;6.03;;;13.20;99.90;;;;;;5048184;28;20402;-76
2023/04/16 12:40:03;;;;;;;17.08;6.13;;;13.20;99.90;;;;;;5022224;28;20033;-76
2023/04/16 12:42:34;;;;;;;16.02;5.82;;;13.20;99.90;;;;;;5007546;28;20046;-76